Hengch'un, Taiwan
Current Conditions -  °F | °C
As of 5:30 PM on Monday 20 Oct 2014 (Local Time) from RCKH Reporting Station
Scattered Clouds Scattered Clouds  
Wind Chill: 79°   Ceiling: Unl
Heat Index: 82°   Visibility: 6mi
Dew Point: 72°   Wind: 7mph
Humidity: 78%   Direction: 290°WNW
Pressure: 29.91"   Gusts: NA
Location:  22°N, 120.75°E
Report Text: RCKH 200930Z 29006KT 9000 FEW025 SCT100 26/22 Q1013 NOSIGRMK A2993
Loading
Personal Weather Stations






























Interactive Weather Map
Tropical Storm Tracking
New forecast layout! Learn more

10-Day Weather Forecast

Advertisements
Track Severe Weather on mobile